createdAt,value
2017-10-07T00:04:05.956Z,14.01
2017-10-07T00:09:07.892Z,14.07
2017-10-07T00:14:09.946Z,14.03
2017-10-07T00:19:11.953Z,14.01
2017-10-07T00:24:13.983Z,14.03
2017-10-07T00:29:16.032Z,14.03
2017-10-07T00:34:18.606Z,14.14
2017-10-07T00:39:21.199Z,14.06
2017-10-07T00:44:23.827Z,13.90
2017-10-07T00:49:25.852Z,13.99
2017-10-07T00:54:28.744Z,13.98
2017-10-07T00:59:30.853Z,13.93
2017-10-07T01:04:33.421Z,13.65
2017-10-07T01:09:36.496Z,13.60
2017-10-07T01:14:39.428Z,13.55
2017-10-07T01:19:41.776Z,13.49
2017-10-07T01:24:43.821Z,13.49
2017-10-07T01:29:46.411Z,13.66
2017-10-07T01:34:49.889Z,13.69
2017-10-07T01:39:53.896Z,13.67
2017-10-07T01:44:57.561Z,13.62
2017-10-07T01:50:00.242Z,13.78
2017-10-07T01:55:05.185Z,13.74
2017-10-07T02:00:11.962Z,13.50
2017-10-07T02:05:19.262Z,13.49
2017-10-07T02:10:22.829Z,13.28
2017-10-07T02:15:32.165Z,13.21
2017-10-07T02:20:36.950Z,13.24
2017-10-07T02:25:42.909Z,13.45
2017-10-07T02:30:49.968Z,13.45
2017-10-07T02:35:53.165Z,13.47
2017-10-07T02:41:00.958Z,13.67
2017-10-07T02:46:08.469Z,13.77
2017-10-07T02:51:16.368Z,13.85
2017-10-07T02:56:19.378Z,13.81
2017-10-07T03:01:26.800Z,13.80
2017-10-07T03:06:29.485Z,13.95
2017-10-07T03:11:32.138Z,13.80
2017-10-07T03:16:34.791Z,13.94
2017-10-07T03:21:36.703Z,13.92
2017-10-07T03:26:38.637Z,13.89
2017-10-07T03:31:40.539Z,13.95
2017-10-07T03:36:42.474Z,13.97
2017-10-07T03:41:44.476Z,13.85
2017-10-07T03:46:46.388Z,13.79
2017-10-07T03:51:48.328Z,13.67
2017-10-07T03:56:50.223Z,13.69
2017-10-07T04:01:56.638Z,13.61
2017-10-07T04:06:58.763Z,13.50
2017-10-07T04:12:00.744Z,13.46
2017-10-07T04:17:02.749Z,13.46
2017-10-07T04:22:04.699Z,13.46
2017-10-07T04:27:06.611Z,13.50
2017-10-07T04:32:08.540Z,13.53
2017-10-07T04:37:10.511Z,13.52
2017-10-07T04:42:12.562Z,13.51
2017-10-07T04:47:14.571Z,13.48
2017-10-07T04:52:17.339Z,13.60
2017-10-07T04:57:20.023Z,13.57
2017-10-07T05:02:22.047Z,13.54
2017-10-07T05:07:24.725Z,13.59
2017-10-07T05:12:26.705Z,13.54
2017-10-07T05:17:28.699Z,13.60
2017-10-07T05:22:33.431Z,13.60
2017-10-07T05:27:45.698Z,13.78
2017-10-07T05:32:58.345Z,13.77
2017-10-07T05:38:08.939Z,13.71
2017-10-07T05:43:19.510Z,13.64
2017-10-07T05:48:22.537Z,13.67
2017-10-07T05:53:37.665Z,13.61
2017-10-07T05:58:40.546Z,13.63
2017-10-07T06:03:42.444Z,13.69
2017-10-07T06:08:45.115Z,13.74
2017-10-07T06:13:47.792Z,13.91
2017-10-07T06:18:49.864Z,13.82
2017-10-07T06:23:51.858Z,13.79
2017-10-07T06:28:53.878Z,13.81
2017-10-07T06:33:55.875Z,13.95
2017-10-07T06:38:58.080Z,13.88
2017-10-07T06:44:00.068Z,14.07
2017-10-07T06:49:02.006Z,14.08
2017-10-07T06:54:04.779Z,14.03
2017-10-07T06:59:06.729Z,13.98
2017-10-07T07:04:09.417Z,14.26
2017-10-07T07:09:11.322Z,14.39
2017-10-07T07:14:13.401Z,14.49
2017-10-07T07:19:15.430Z,14.39
2017-10-07T07:24:17.379Z,14.30
2017-10-07T07:29:20.081Z,14.47
2017-10-07T07:34:22.139Z,14.49
2017-10-07T07:39:24.057Z,14.36
2017-10-07T07:44:27.877Z,14.32
2017-10-07T07:49:30.600Z,14.27
2017-10-07T07:54:33.309Z,14.55
2017-10-07T07:59:35.367Z,14.93
2017-10-07T08:04:37.277Z,15.23
2017-10-07T08:09:39.942Z,15.58
2017-10-07T08:14:42.393Z,15.45
2017-10-07T08:19:44.947Z,15.46
2017-10-07T08:24:47.723Z,15.40
2017-10-07T08:29:49.653Z,15.34
2017-10-07T08:34:51.759Z,15.09
2017-10-07T08:39:53.710Z,15.11
2017-10-07T08:44:55.658Z,15.20
2017-10-07T08:49:57.600Z,15.34
2017-10-07T08:54:59.503Z,15.47
2017-10-07T09:00:02.207Z,15.44
2017-10-07T09:05:04.108Z,15.51
2017-10-07T09:10:06.004Z,15.67
2017-10-07T09:15:08.008Z,15.56
2017-10-07T09:20:10.693Z,15.44
2017-10-07T09:25:12.593Z,15.47
2017-10-07T09:30:14.520Z,15.60
2017-10-07T09:35:17.172Z,15.94
2017-10-07T09:40:19.100Z,16.09
2017-10-07T09:45:21.120Z,16.22
2017-10-07T09:50:23.067Z,16.06
2017-10-07T09:55:24.987Z,16.01
2017-10-07T10:00:27.685Z,16.11
2017-10-07T10:05:29.646Z,16.15
2017-10-07T10:10:31.585Z,16.06
2017-10-07T10:15:34.537Z,15.93
2017-10-07T10:20:36.477Z,15.56
2017-10-07T10:25:39.155Z,15.29
2017-10-07T10:30:41.049Z,15.29
2017-10-07T10:35:42.944Z,15.30
2017-10-07T10:40:44.850Z,15.10
2017-10-07T10:45:46.779Z,15.29
2017-10-07T10:50:48.707Z,15.46
2017-10-07T10:55:50.626Z,15.43
2017-10-07T11:00:52.600Z,15.50
2017-10-07T11:05:54.478Z,15.66
2017-10-07T11:10:57.116Z,15.47
2017-10-07T11:15:59.109Z,15.58
2017-10-07T11:21:01.179Z,15.41
2017-10-07T11:26:03.190Z,15.31
2017-10-07T11:31:05.151Z,15.48
2017-10-07T11:36:07.192Z,15.41
2017-10-07T11:41:09.163Z,15.46
2017-10-07T11:46:11.919Z,15.31
2017-10-07T11:51:14.030Z,15.16
2017-10-07T11:56:17.009Z,15.15
2017-10-07T12:01:20.153Z,15.11
2017-10-07T12:06:23.550Z,14.87
2017-10-07T12:11:26.880Z,14.83
2017-10-07T12:16:29.126Z,15.00
2017-10-07T12:21:31.112Z,14.97
2017-10-07T12:26:34.856Z,14.87
2017-10-07T12:31:36.834Z,14.75
2017-10-07T12:36:38.771Z,14.80
2017-10-07T12:41:40.715Z,14.63
2017-10-07T12:46:42.611Z,14.66
2017-10-07T12:51:45.303Z,14.67
2017-10-07T12:56:47.215Z,14.70
2017-10-07T13:01:49.978Z,14.60
2017-10-07T13:06:52.695Z,14.58
2017-10-07T13:11:54.599Z,14.44
2017-10-07T13:16:56.535Z,14.43
2017-10-07T13:21:58.510Z,14.43
2017-10-07T13:27:00.429Z,14.44
2017-10-07T13:32:03.192Z,14.38
2017-10-07T13:37:05.160Z,14.46
2017-10-07T13:42:07.079Z,14.32
2017-10-07T13:47:09.635Z,14.51
2017-10-07T13:52:13.272Z,14.45
2017-10-07T13:57:16.368Z,14.41
2017-10-07T14:02:18.733Z,14.33
2017-10-07T14:07:20.653Z,14.39
2017-10-07T14:12:23.347Z,14.55
2017-10-07T14:17:25.305Z,14.37
2017-10-07T14:22:27.242Z,14.44
2017-10-07T14:27:29.194Z,14.47
2017-10-07T14:32:31.105Z,14.41
2017-10-07T14:37:33.000Z,14.45
2017-10-07T14:42:36.379Z,14.43
2017-10-07T14:47:38.480Z,14.49
2017-10-07T14:52:41.286Z,14.42
2017-10-07T14:57:44.558Z,14.27
2017-10-07T15:02:47.096Z,14.30
2017-10-07T15:07:50.448Z,14.29
2017-10-07T15:12:52.420Z,14.25
2017-10-07T15:17:55.109Z,14.17
2017-10-07T15:22:57.151Z,14.18
2017-10-07T15:27:59.219Z,14.19
2017-10-07T15:33:01.304Z,14.07
2017-10-07T15:38:03.996Z,14.25
2017-10-07T15:43:05.939Z,14.26
2017-10-07T15:48:11.767Z,14.12
2017-10-07T15:53:14.562Z,14.21
2017-10-07T15:58:16.494Z,14.33
2017-10-07T16:03:18.599Z,14.22
2017-10-07T16:08:21.273Z,14.34
2017-10-07T16:13:23.228Z,14.48
2017-10-07T16:18:25.895Z,14.47
2017-10-07T16:23:28.559Z,14.59
2017-10-07T16:28:31.283Z,14.44
2017-10-07T16:33:33.219Z,14.56
2017-10-07T16:38:35.895Z,14.44
2017-10-07T16:43:38.459Z,14.40
2017-10-07T16:48:40.570Z,14.44
2017-10-07T16:53:42.494Z,14.47
2017-10-07T16:58:44.479Z,14.40
2017-10-07T17:03:46.538Z,14.53
2017-10-07T17:08:49.254Z,14.41
2017-10-07T17:13:51.167Z,14.53
2017-10-07T17:18:53.938Z,14.50
2017-10-07T17:23:56.627Z,14.55
2017-10-07T17:29:00.632Z,14.49
2017-10-07T17:34:02.565Z,14.45
2017-10-07T17:39:04.578Z,14.45
2017-10-07T17:44:07.882Z,14.52
2017-10-07T17:49:10.425Z,14.42
2017-10-07T17:54:14.425Z,14.49
2017-10-07T17:59:17.912Z,14.60
2017-10-07T18:04:21.788Z,14.52
2017-10-07T18:09:24.934Z,14.44
2017-10-07T18:14:28.199Z,14.62
2017-10-07T18:19:31.403Z,14.48
2017-10-07T18:24:34.950Z,14.54
2017-10-07T18:29:38.337Z,14.63
2017-10-07T18:34:41.533Z,14.55
2017-10-07T18:39:44.831Z,14.70
2017-10-07T18:50:17.359Z,14.52
2017-10-07T18:55:19.264Z,14.55
2017-10-07T19:00:22.009Z,14.53
2017-10-07T19:05:24.687Z,14.58
2017-10-07T19:10:27.334Z,14.52
2017-10-07T19:15:29.808Z,14.48
2017-10-07T19:20:33.195Z,14.50
2017-10-07T19:25:35.862Z,14.56
2017-10-07T19:30:38.535Z,14.53
2017-10-07T19:35:40.435Z,14.54
2017-10-07T19:40:42.329Z,14.56
2017-10-07T19:45:44.320Z,14.55
2017-10-07T19:50:46.215Z,14.54
2017-10-07T19:55:48.526Z,14.55
2017-10-07T20:00:50.616Z,14.60
2017-10-07T20:05:52.507Z,14.46
2017-10-07T20:10:54.762Z,14.47
2017-10-07T20:15:57.101Z,14.52
2017-10-07T20:21:00.236Z,14.54
2017-10-07T20:26:03.187Z,14.52
2017-10-07T20:31:05.092Z,14.68
2017-10-07T20:36:07.775Z,14.65
2017-10-07T20:41:09.674Z,14.67
2017-10-07T20:46:11.601Z,14.71
2017-10-07T20:51:13.559Z,14.66
2017-10-07T20:56:15.495Z,14.59
2017-10-07T21:01:17.466Z,14.65
2017-10-07T21:06:19.346Z,14.61
2017-10-07T21:11:21.998Z,14.61
2017-10-07T21:16:24.654Z,14.67
2017-10-07T21:21:28.224Z,14.69
2017-10-07T21:26:30.831Z,14.70
2017-10-07T21:31:32.766Z,14.76
2017-10-07T21:36:34.843Z,14.72
2017-10-07T21:41:36.846Z,14.74
2017-10-07T21:46:38.806Z,14.76
2017-10-07T21:51:41.600Z,14.74
2017-10-07T21:56:43.516Z,14.77
2017-10-07T22:01:46.505Z,14.96
2017-10-07T22:06:48.427Z,14.86
2017-10-07T22:11:51.163Z,14.85
2017-10-07T22:16:53.042Z,14.94
2017-10-07T22:21:55.694Z,15.03
2017-10-07T22:26:57.614Z,15.02
2017-10-07T22:31:59.527Z,15.06
2017-10-07T22:37:01.500Z,15.06
2017-10-07T22:42:03.403Z,15.02
2017-10-07T22:47:05.319Z,15.08
2017-10-07T22:52:07.906Z,15.11
2017-10-07T22:57:10.187Z,15.09
2017-10-07T23:02:12.456Z,15.16
2017-10-07T23:07:14.619Z,15.21
2017-10-07T23:12:17.058Z,15.25
2017-10-07T23:17:19.859Z,15.16
2017-10-07T23:22:33.256Z,15.15
2017-10-07T23:27:35.811Z,15.12
2017-10-07T23:32:38.885Z,15.22
2017-10-07T23:37:40.810Z,15.09
2017-10-07T23:42:42.795Z,15.05
2017-10-07T23:47:44.708Z,15.02
2017-10-07T23:52:46.629Z,15.00
2017-10-07T23:57:49.269Z,14.96
